| time (UTC) | temp C | wind direction | speed KPH | gust KPH | rain 1hr cm | rain 24hr cm | rain mn cm | humidity % | barometer mb |
| 20260510142515 | 12 | 12 | 9.7 | 27.4 | 0.00 | 0.00 | 0.00 | ||
| 20260510141655 | 13 | 19 | 9.7 | 24.1 | 0.00 | 0.00 | 0.00 | ||
| 20260510140535 | 12 | 18 | 9.7 | 20.9 | 0.00 | 0.00 | 0.00 | ||
| 20260510135655 | 12 | 21 | 8.0 | 17.7 | 0.00 | 0.00 | 0.00 | ||
| 20260510134535 | 12 | 7 | 11.3 | 25.7 | 0.00 | 0.00 | 0.00 | ||
| 20260510133515 | 12 | 13 | 9.7 | 19.3 | 0.00 | 0.00 | 0.00 | ||
| 20260510132515 | 13 | 14 | 12.9 | 29.0 | 0.00 | 0.00 | 0.00 | ||
| 20260510131515 | 13 | 11 | 11.3 | 32.2 | 0.00 | 0.00 | 0.00 | ||
| 20260510130515 | 13 | 27 | 9.7 | 24.1 | 0.00 | 0.00 | 0.00 | ||
| 20260510125515 | 13 | 12 | 11.3 | 22.5 | 0.00 | 0.00 | 0.00 | ||
| 20260510124515 | 13 | 11 | 11.3 | 32.2 | 0.00 | 0.00 | 0.00 | ||
| 20260510123515 | 13 | 30 | 11.3 | 29.0 | 0.00 | 0.00 | 0.00 | ||
| 20260510122535 | 13 | 8 | 11.3 | 25.7 | 0.00 | 0.00 | 0.00 | ||
| 20260510121515 | 12 | 13 | 11.3 | 27.4 | 0.00 | 0.00 | 0.00 | ||
| 20260510120555 | 12 | 12 | 11.3 | 25.7 | 0.00 | 0.00 | 0.00 | ||
| 20260510115515 | 12 | 9 | 11.3 | 24.1 | 0.00 | 0.00 | 0.00 | ||
| 20260510114535 | 12 | 13 | 9.7 | 24.1 | 0.00 | 0.00 | 0.00 | ||
| 20260510113535 | 12 | 20 | 9.7 | 20.9 | 0.00 | 0.00 | 0.00 | ||
| 20260510112516 | 12 | 10 | 11.3 | 25.7 | 0.00 | 0.00 | 0.00 | ||
| 20260510111515 | 11 | 10 | 11.3 | 29.0 | 0.00 | 0.00 | 0.00 | ||
| 20260510110555 | 11 | 13 | 11.3 | 33.8 | 0.00 | 0.00 | 0.00 | ||
| 20260510105515 | 12 | 13 | 8.0 | 20.9 | 0.00 | 0.00 | 0.00 | ||
| 20260510104515 | 11 | 13 | 9.7 | 24.1 | 0.00 | 0.00 | 0.00 | ||
| 20260510103535 | 11 | 3 | 9.7 | 27.4 | 0.00 | 0.00 | 0.00 | ||
| 20260510102535 | 11 | 8 | 11.3 | 24.1 | 0.00 | 0.00 | 0.00 | ||
| 20260510101535 | 12 | 11 | 8.0 | 22.5 | 0.00 | 0.00 | 0.00 | ||
| 20260510100524 | 12 | 25 | 9.7 | 25.7 | 0.00 | 0.00 | 0.00 | ||
| 20260510095515 | 11 | 8 | 9.7 | 20.9 | 0.00 | 0.00 | 0.00 | ||
| 20260510094535 | 11 | 12 | 11.3 | 25.7 | 0.00 | 0.00 | 0.00 | ||
| 20260510093515 | 12 | 8 | 6.4 | 22.5 | 0.00 | 0.00 | 0.00 | ||
| 20260510092535 | 12 | 9 | 11.3 | 25.7 | 0.00 | 0.00 | 0.00 | ||
| 20260510091555 | 11 | 18 | 8.0 | 22.5 | 0.00 | 0.00 | 0.00 | ||
| 20260510090535 | 11 | 11 | 8.0 | 19.3 | 0.00 | 0.00 | 0.00 | ||
| 20260510085615 | 11 | 6 | 9.7 | 22.5 | 0.00 | 0.00 | 0.00 | ||
| 20260510084615 | 11 | 18 | 8.0 | 20.9 | 0.00 | 0.00 | 0.00 | ||
| 20260510083515 | 11 | 9 | 11.3 | 24.1 | 0.00 | 0.00 | 0.00 | ||
| 20260510082555 | 12 | 18 | 8.0 | 19.3 | 0.00 | 0.00 | 0.00 | ||
| 20260510081515 | 12 | 8 | 9.7 | 22.5 | 0.00 | 0.00 | 0.00 | ||
| 20260510080555 | 12 | 12 | 9.7 | 20.9 | 0.00 | 0.00 | 0.00 | ||
| 20260510075535 | 12 | 21 | 9.7 | 22.5 | 0.00 | 0.00 | 0.00 | ||
| 20260510074517 | 12 | 25 | 9.7 | 25.7 | 0.00 | 0.00 | 0.00 | ||
| 20260510073515 | 11 | 18 | 11.3 | 30.6 | 0.00 | 0.00 | 0.00 | ||
| 20260510072515 | 11 | 17 | 8.0 | 20.9 | 0.00 | 0.00 | 0.00 | ||
| 20260510071515 | 11 | 13 | 9.7 | 22.5 | 0.00 | 0.00 | 0.00 | ||
| 20260510070515 | 11 | 18 | 6.4 | 17.7 | 0.00 | 0.00 | 0.00 | ||
| 20260510065555 | 11 | 11 | 9.7 | 20.9 | 0.00 | 0.00 | 0.00 | ||
| 20260510064515 | 10 | 16 | 4.8 | 14.5 | 0.00 | 0.00 | 0.00 | ||
| 20260510063535 | 10 | 15 | 6.4 | 17.7 | 0.00 | 0.00 | 0.00 | ||
| 20260510062535 | 10 | 14 | 8.0 | 20.9 | 0.00 | 0.00 | 0.00 | ||
| 20260510061516 | 10 | 12 | 9.7 | 22.5 | 0.00 | 0.00 | 0.00 | ||
| 20260510060515 | 10 | 10 | 9.7 | 20.9 | 0.00 | 0.00 | 0.00 | ||
| 20260510055515 | 10 | 8 | 4.8 | 14.5 | 0.00 | 0.00 | 0.00 | ||
| 20260510054515 | 9 | 10 | 4.8 | 16.1 | 0.00 | 0.00 | 0.00 | ||
| 20260510053615 | 9 | 14 | 6.4 | 16.1 | 0.00 | 0.00 | 0.00 | ||
| 20260510052535 | 9 | 13 | 6.4 | 14.5 | 0.00 | 0.00 | 0.00 | ||
| 20260510051515 | 9 | 10 | 8.0 | 14.5 | 0.00 | 0.00 | 0.00 | ||
| 20260510050535 | 9 | 9 | 8.0 | 17.7 | 0.00 | 0.00 | 0.00 | ||
| 20260510045615 | 8 | 9 | 6.4 | 17.7 | 0.00 | 0.00 | 0.00 | ||
| 20260510044535 | 8 | 9 | 9.7 | 17.7 | 0.00 | 0.00 | 0.00 | ||
| 20260510043536 | 8 | 8 | 8.0 | 14.5 | 0.00 | 0.00 | 0.00 | ||
| 20260510042535 | 8 | 9 | 4.8 | 12.9 | 0.00 | 0.00 | 0.00 | ||
| 20260510041515 | 8 | 7 | 4.8 | 12.9 | 0.00 | 0.00 | 0.00 | ||
| 20260510040615 | 8 | 12 | 4.8 | 14.5 | 0.00 | 0.00 | 0.00 | ||
| 20260510035535 | 8 | 9 | 4.8 | 14.5 | 0.00 | 0.00 | 0.00 | ||
| 20260510034515 | 8 | 11 | 6.4 | 19.3 | 0.00 | 0.00 | 0.00 | ||
| 20260510033635 | 8 | 9 | 4.8 | 17.7 | 0.00 | 0.00 | 0.00 | ||
| 20260510032535 | 8 | 6 | 9.7 | 20.9 | 0.00 | 0.00 | 0.00 | ||
| 20260510030535 | 8 | 6 | 8.0 | 17.7 | 0.00 | 0.00 | 0.00 | ||
| 20260510025515 | 8 | 7 | 8.0 | 17.7 | 0.00 | 0.00 | 0.00 | ||
| 20260510024516 | 8 | 7 | 6.4 | 14.5 | 0.00 | 0.00 | 0.00 | ||
| 20260510022515 | 8 | 9 | 6.4 | 14.5 | 0.00 | 0.00 | 0.00 | ||
| 20260510021535 | 9 | 7 | 6.4 | 16.1 | 0.00 | 0.00 | 0.00 | ||
| 20260510020535 | 9 | 10 | 6.4 | 12.9 | 0.00 | 0.00 | 0.00 | ||
| 20260510015535 | 9 | 10 | 6.4 | 16.1 | 0.00 | 0.00 | 0.00 | ||
| 20260510014516 | 9 | 9 | 6.4 | 16.1 | 0.00 | 0.00 | 0.00 | ||
| 20260510013515 | 9 | 9 | 6.4 | 17.7 | 0.00 | 0.00 | 0.00 | ||
| 20260510012615 | 9 | 6 | 6.4 | 17.7 | 0.00 | 0.00 | 0.00 | ||
| 20260510011535 | 9 | 4 | 4.8 | 12.9 | 0.00 | 0.00 | 0.00 | ||
| 20260510010515 | 9 | 5 | 4.8 | 11.3 | 0.00 | 0.00 | 0.00 | ||
| 20260510005515 | 9 | 6 | 3.2 | 11.3 | 0.00 | 0.00 | 0.00 | ||
| 20260510004615 | 9 | 4 | 3.2 | 11.3 | 0.00 | 0.00 | 0.00 | ||
| 20260510003515 | 9 | 3 | 4.8 | 11.3 | 0.00 | 0.00 | 0.00 | ||
| 20260510002635 | 9 | 4 | 4.8 | 11.3 | 0.00 | 0.00 | 0.00 | ||
| 20260510001515 | 9 | 7 | 6.4 | 12.9 | 0.00 | 0.00 | 0.00 | ||
| 20260510000555 | 10 | 7 | 4.8 | 12.9 | 0.00 | 0.00 | 0.00 | ||
| 20260509235515 | 10 | 7 | 4.8 | 12.9 | 0.00 | 0.00 | 0.00 | ||
| 20260509234515 | 9 | 3 | 3.2 | 8.0 | 0.00 | 0.00 | 0.00 | ||
| 20260509233615 | 9 | 4 | 4.8 | 14.5 | 0.00 | 0.00 | 0.00 | ||
| 20260509232555 | 9 | 9 | 4.8 | 9.7 | 0.00 | 0.00 | 0.00 | ||
| 20260509231535 | 9 | 9 | 4.8 | 14.5 | 0.00 | 0.00 | 0.00 | ||
| 20260509230636 | 9 | 8 | 6.4 | 17.7 | 0.00 | 0.00 | 0.00 | ||
| 20260509225635 | 9 | 6 | 4.8 | 12.9 | 0.00 | 0.00 | 0.00 | ||
| 20260509224535 | 9 | 360 | 1.6 | 6.4 | 0.00 | 0.00 | 0.00 | ||
| 20260509223535 | 10 | 2 | 3.2 | 9.7 | 0.00 | 0.00 | 0.00 | ||
| 20260509222535 | 10 | 359 | 1.6 | 8.0 | 0.00 | 0.00 | 0.00 | ||
| 20260509221535 | 10 | 8 | 3.2 | 12.9 | 0.00 | 0.00 | 0.00 | ||
| 20260509220515 | 10 | 17 | 1.6 | 8.0 | 0.00 | 0.00 | 0.00 | ||
| 20260509215555 | 10 | 7 | 0.0 | 4.8 | 0.00 | 0.00 | 0.00 | ||
| 20260509214515 | 11 | 8 | 3.2 | 9.7 | 0.00 | 0.00 | 0.00 | ||
| 20260509213535 | 11 | 10 | 4.8 | 11.3 | 0.00 | 0.00 | 0.00 | ||
| 20260509212535 | 11 | 19 | 3.2 | 9.7 | 0.00 | 0.00 | 0.00 | ||
| 20260509211555 | 11 | 17 | 4.8 | 11.3 | 0.00 | 0.00 | 0.00 | ||
| 20260509210655 | 11 | 18 | 3.2 | 11.3 | 0.00 | 0.00 | 0.00 | ||
| 20260509205515 | 11 | 13 | 3.2 | 11.3 | 0.00 | 0.00 | 0.00 | ||
| 20260509204535 | 11 | 27 | 3.2 | 9.7 | 0.00 | 0.00 | 0.00 | ||
| 20260509203515 | 11 | 21 | 3.2 | 9.7 | 0.00 | 0.00 | 0.00 | ||
| 20260509202535 | 12 | 358 | 0.0 | 6.4 | 0.00 | 0.00 | 0.00 | ||
| 20260509201516 | 12 | 21 | 1.6 | 9.7 | 0.00 | 0.00 | 0.00 | ||
| 20260509200515 | 12 | 24 | 3.2 | 11.3 | 0.00 | 0.00 | 0.00 | ||
| 20260509195555 | 13 | 16 | 3.2 | 9.7 | 0.00 | 0.00 | 0.00 | ||
| 20260509194515 | 13 | 34 | 3.2 | 9.7 | 0.00 | 0.00 | 0.00 | ||
| 20260509193515 | 13 | 37 | 1.6 | 9.7 | 0.00 | 0.00 | 0.00 | ||
| 20260509192515 | 14 | 18 | 0.0 | 6.4 | 0.00 | 0.00 | 0.00 | ||
| 20260509191555 | 14 | 40 | 1.6 | 8.0 | 0.00 | 0.00 | 0.00 | ||
| 20260509190515 | 15 | 36 | 1.6 | 8.0 | 0.00 | 0.00 | 0.00 | ||
| 20260509185517 | 15 | 43 | 1.6 | 8.0 | 0.00 | 0.00 | 0.00 | ||
| 20260509184555 | 16 | 21 | 6.4 | 12.9 | 0.00 | 0.00 | 0.00 | ||
| 20260509183555 | 16 | 19 | 3.2 | 9.7 | 0.00 | 0.00 | 0.00 | ||
| 20260509182515 | 17 | 41 | 3.2 | 12.9 | 0.00 | 0.00 | 0.00 | ||
| 20260509181515 | 18 | 32 | 3.2 | 12.9 | 0.00 | 0.00 | 0.00 | ||
| 20260509180535 | 18 | 17 | 6.4 | 16.1 | 0.00 | 0.00 | 0.00 | ||
| 20260509175515 | 20 | 34 | 4.8 | 16.1 | 0.00 | 0.00 | 0.00 | ||
| 20260509174515 | 20 | 37 | 4.8 | 12.9 | 0.00 | 0.00 | 0.00 | ||
| 20260509173535 | 20 | 38 | 4.8 | 16.1 | 0.00 | 0.00 | 0.00 | ||
| 20260509172535 | 21 | 35 | 3.2 | 9.7 | 0.00 | 0.00 | 0.00 | ||
| 20260509171515 | 21 | 44 | 3.2 | 11.3 | 0.00 | 0.00 | 0.00 | ||
| 20260509170515 | 21 | 45 | 3.2 | 14.5 | 0.00 | 0.00 | 0.00 | ||
| 20260509165515 | 21 | 37 | 3.2 | 9.7 | 0.00 | 0.00 | 0.00 | ||
| 20260509164555 | 21 | 30 | 1.6 | 12.9 | 0.00 | 0.00 | 0.00 | ||
| 20260509162515 | 22 | 42 | 3.2 | 12.9 | 0.00 | 0.00 | 0.00 | ||
| 20260509161615 | 21 | 37 | 1.6 | 14.5 | 0.00 | 0.00 | 0.00 | ||
| 20260509160535 | 22 | 46 | 4.8 | 17.7 | 0.00 | 0.00 | 0.00 | ||
| 20260509155555 | 22 | 19 | 4.8 | 19.3 | 0.00 | 0.00 | 0.00 | ||
| 20260509154515 | 22 | 52 | 1.6 | 9.7 | 0.00 | 0.00 | 0.00 | ||
| 20260509153515 | 22 | 50 | 4.8 | 17.7 | 0.00 | 0.00 | 0.00 | ||
| 20260509152655 | 22 | 42 | 3.2 | 12.9 | 0.00 | 0.00 | 0.00 | ||
| 20260509151535 | 22 | 30 | 4.8 | 14.5 | 0.00 | 0.00 | 0.00 | ||
| 20260509150535 | 21 | 36 | 4.8 | 12.9 | 0.00 | 0.00 | 0.00 | ||
| 20260509144517 | 20 | 32 | 4.8 | 16.1 | 0.00 | 0.00 | 0.00 | ||
| 20260509143515 | 21 | 36 | 4.8 | 14.5 | 0.00 | 0.00 | 0.00 |